Time;durP1;ratioP1;P1;durP2;ratioP2;P2;SDS_P1;SDS_P2;PMS_P1;PMS_P2;Temp;Humidity;BMP_temperature;BMP_pressure;BME280_temperature;BME280_humidity;BME280_pressure;Samples;Min_cycle;Max_cycle;Signal;HPM_P1;HPM_P2
2022/10/23 00:02:41;;;;;;;5.13;4.72;;;9.00;99.90;;;;;;6139762;29;20288;-68
2022/10/23 00:05:47;;;;;;;5.63;5.22;;;9.10;99.90;;;;;;6132525;29;20272;-68
2022/10/23 00:08:53;;;;;;;5.32;5.00;;;9.20;99.90;;;;;;6122708;29;20310;-68
2022/10/23 00:11:58;;;;;;;5.25;4.85;;;9.30;99.90;;;;;;6119724;29;20323;-66
2022/10/23 00:15:02;;;;;;;4.82;4.53;;;9.20;99.90;;;;;;6116369;29;20291;-67
2022/10/23 00:18:09;;;;;;;5.07;4.78;;;9.30;99.90;;;;;;6115860;29;20300;-67
2022/10/23 00:21:15;;;;;;;5.25;4.95;;;9.30;99.90;;;;;;6115972;29;20464;-67
2022/10/23 00:24:22;;;;;;;5.30;5.00;;;9.40;99.90;;;;;;6115792;29;20303;-67
2022/10/23 00:27:27;;;;;;;5.10;4.90;;;9.30;99.90;;;;;;6115425;29;20307;-67
2022/10/23 00:30:31;;;;;;;4.95;4.75;;;9.30;99.90;;;;;;6099485;29;20276;-67
2022/10/23 00:33:37;;;;;;;5.50;4.70;;;9.30;99.90;;;;;;6115491;29;20299;-67
2022/10/23 00:36:41;;;;;;;4.78;4.47;;;9.30;99.90;;;;;;6116149;29;20291;-67
2022/10/23 00:39:47;;;;;;;4.60;4.38;;;9.30;99.90;;;;;;6115609;29;20308;-68
2022/10/23 00:42:52;;;;;;;4.75;4.47;;;9.20;99.90;;;;;;6115811;29;20295;-68
2022/10/23 00:45:58;;;;;;;4.45;4.10;;;9.30;99.90;;;;;;6118029;29;20280;-68
2022/10/23 00:49:04;;;;;;;4.57;4.38;;;9.20;99.90;;;;;;6103193;29;20295;-68
2022/10/23 00:52:13;;;;;;;5.40;4.80;;;9.30;99.90;;;;;;6119628;29;20448;-68
2022/10/23 00:55:22;;;;;;;4.95;4.55;;;9.30;99.90;;;;;;6103270;29;20484;-68
2022/10/23 00:58:27;;;;;;;5.30;5.00;;;9.30;99.90;;;;;;6119218;29;20304;-67
2022/10/23 01:01:32;;;;;;;4.50;4.30;;;9.30;99.90;;;;;;6120512;29;20276;-67
2022/10/23 01:04:37;;;;;;;5.15;4.80;;;9.10;99.90;;;;;;6119753;29;20295;-67
2022/10/23 01:07:50;;;;;;;5.13;4.78;;;9.10;99.90;;;;;;6102027;29;20296;-67
2022/10/23 01:11:04;;;;;;;4.82;4.63;;;9.10;99.90;;;;;;6119751;29;20268;-67
2022/10/23 01:14:23;;;;;;;4.65;4.40;;;9.00;99.90;;;;;;6118450;29;20300;-68
2022/10/23 01:17:36;;;;;;;5.40;5.00;;;9.00;99.90;;;;;;6118040;29;20295;-66
2022/10/23 01:20:51;;;;;;;5.00;4.65;;;9.00;99.90;;;;;;6118777;29;20279;-68
2022/10/23 01:24:13;;;;;;;4.95;4.60;;;9.00;99.90;;;;;;6119522;29;20336;-68
2022/10/23 01:27:24;;;;;;;5.03;4.72;;;8.90;99.90;;;;;;6117884;29;20588;-68
2022/10/23 01:30:29;;;;;;;5.10;4.72;;;8.90;99.90;;;;;;6119801;29;20272;-68
2022/10/23 01:33:39;;;;;;;5.20;4.80;;;8.80;99.90;;;;;;6118247;29;20304;-67
2022/10/23 01:36:48;;;;;;;5.25;4.93;;;8.70;99.90;;;;;;6118379;29;20295;-68
2022/10/23 01:39:56;;;;;;;4.95;4.63;;;8.70;99.90;;;;;;6119231;29;20390;-68
2022/10/23 01:43:08;;;;;;;4.75;4.50;;;8.90;99.90;;;;;;6117632;29;20291;-68
2022/10/23 01:46:17;;;;;;;4.90;4.60;;;8.90;99.90;;;;;;6117826;29;20272;-67
2022/10/23 01:49:23;;;;;;;4.78;4.47;;;8.80;99.90;;;;;;6117497;29;20311;-67
2022/10/23 01:52:32;;;;;;;4.72;4.53;;;8.80;99.90;;;;;;6117482;29;20303;-68
2022/10/23 01:55:41;;;;;;;4.63;4.32;;;8.90;99.90;;;;;;6117366;29;20295;-67
2022/10/23 01:59:00;;;;;;;4.80;4.30;;;8.80;99.90;;;;;;6116224;29;20348;-68
2022/10/23 02:02:13;;;;;;;4.68;4.25;;;8.90;99.90;;;;;;6117400;29;20276;-67
2022/10/23 02:05:24;;;;;;;4.70;4.40;;;8.80;99.90;;;;;;6117229;29;20324;-66
2022/10/23 02:08:29;;;;;;;4.70;4.30;;;8.90;99.90;;;;;;6135870;29;20462;-67
2022/10/23 02:11:38;;;;;;;4.80;4.40;;;8.80;99.90;;;;;;6108565;29;20268;-66
2022/10/23 02:14:53;;;;;;;4.60;4.20;;;8.90;99.90;;;;;;6118000;29;20300;-67
2022/10/23 02:18:08;;;;;;;4.88;4.38;;;8.90;99.90;;;;;;6101451;29;20474;-67
2022/10/23 02:21:17;;;;;;;4.57;4.28;;;8.80;99.90;;;;;;6101438;29;20272;-67
2022/10/23 02:24:30;;;;;;;5.05;4.72;;;8.80;99.90;;;;;;6117967;29;20495;-67
2022/10/23 02:27:48;;;;;;;4.78;4.43;;;8.80;99.90;;;;;;6100968;29;20299;-67
2022/10/23 02:30:58;;;;;;;5.97;4.35;;;8.80;99.90;;;;;;6101705;29;20267;-67
2022/10/23 02:34:04;;;;;;;4.35;4.10;;;8.80;99.90;;;;;;6117556;29;20300;-67
2022/10/23 02:37:11;;;;;;;4.40;4.20;;;8.70;99.90;;;;;;6117248;29;20296;-67
2022/10/23 02:40:16;;;;;;;4.80;4.60;;;8.70;99.90;;;;;;6101097;29;20405;-67
2022/10/23 02:43:27;;;;;;;4.70;4.50;;;8.60;99.90;;;;;;6100473;29;20303;-66
2022/10/23 02:46:43;;;;;;;4.47;4.28;;;8.70;99.90;;;;;;6101063;29;20276;-67
2022/10/23 02:49:54;;;;;;;5.00;4.57;;;8.70;99.90;;;;;;6100521;29;20295;-67
2022/10/23 02:53:05;;;;;;;4.40;4.20;;;8.70;99.90;;;;;;6100353;29;20296;-68
2022/10/23 02:56:17;;;;;;;4.25;3.97;;;8.60;99.90;;;;;;6100876;29;20471;-68
2022/10/23 02:59:31;;;;;;;5.15;4.72;;;8.50;99.90;;;;;;6117126;29;20451;-68
2022/10/23 03:02:40;;;;;;;4.30;4.00;;;8.50;99.90;;;;;;6114648;29;20287;-68
2022/10/23 03:05:45;;;;;;;4.82;4.32;;;8.50;99.90;;;;;;6117154;29;20267;-68
2022/10/23 03:08:55;;;;;;;4.72;4.53;;;8.50;99.90;;;;;;6092837;29;20308;-68
2022/10/23 03:12:01;;;;;;;4.80;4.50;;;8.50;99.90;;;;;;6077351;29;20293;-68
2022/10/23 03:15:12;;;;;;;5.20;4.88;;;8.50;99.90;;;;;;6076923;29;20308;-68
2022/10/23 03:18:18;;;;;;;5.28;4.88;;;8.50;99.90;;;;;;6076532;29;20302;-68
2022/10/23 03:21:26;;;;;;;4.90;4.60;;;8.40;99.90;;;;;;6077366;29;20372;-68
2022/10/23 03:24:31;;;;;;;5.00;4.70;;;8.50;99.90;;;;;;6093301;29;20300;-67
2022/10/23 03:27:36;;;;;;;4.47;4.20;;;8.30;99.90;;;;;;6092627;29;20276;-68
2022/10/23 03:30:43;;;;;;;4.82;4.53;;;8.40;99.90;;;;;;6076905;29;20276;-68
2022/10/23 03:33:49;;;;;;;4.88;4.57;;;8.50;99.90;;;;;;6092637;29;20300;-68
2022/10/23 03:36:57;;;;;;;4.88;4.35;;;8.30;99.90;;;;;;6093347;29;20289;-68
2022/10/23 03:40:02;;;;;;;4.70;4.40;;;8.10;99.90;;;;;;6076434;29;20304;-68
2022/10/23 03:43:13;;;;;;;5.30;4.32;;;8.00;99.90;;;;;;6076593;29;20304;-66
2022/10/23 03:46:18;;;;;;;4.55;4.18;;;8.00;99.90;;;;;;6076936;29;20284;-67
2022/10/23 03:49:29;;;;;;;5.00;4.70;;;8.10;99.90;;;;;;6076178;29;20300;-67
2022/10/23 03:52:40;;;;;;;4.88;4.50;;;7.90;99.90;;;;;;6076331;29;20273;-67
2022/10/23 03:55:48;;;;;;;5.88;4.60;;;7.90;99.90;;;;;;6076789;29;20557;-67
2022/10/23 03:58:54;;;;;;;6.43;5.20;;;7.90;99.90;;;;;;6075971;29;20300;-67
2022/10/23 04:02:02;;;;;;;4.45;4.22;;;7.60;99.90;;;;;;6076491;29;20277;-67
2022/10/23 04:05:09;;;;;;;5.03;4.72;;;7.50;99.90;;;;;;6092793;29;20320;-67
2022/10/23 04:08:17;;;;;;;4.88;4.57;;;7.60;99.90;;;;;;6087749;29;20304;-67
2022/10/23 04:11:26;;;;;;;5.32;4.82;;;7.50;99.90;;;;;;6107148;29;20560;-67
2022/10/23 04:14:31;;;;;;;5.72;4.22;;;7.50;99.90;;;;;;6116242;29;20296;-67
2022/10/23 04:17:35;;;;;;;5.18;4.78;;;7.50;99.90;;;;;;6114890;29;20295;-68
2022/10/23 04:20:42;;;;;;;3.80;3.70;;;7.60;99.90;;;;;;6116972;29;20276;-67
2022/10/23 04:23:47;;;;;;;4.43;4.13;;;7.70;99.90;;;;;;6119356;29;20299;-67
2022/10/23 04:26:55;;;;;;;4.30;4.10;;;7.60;99.90;;;;;;6120809;29;20299;-67
2022/10/23 04:30:05;;;;;;;4.40;4.20;;;7.60;99.90;;;;;;6118966;29;20299;-67
2022/10/23 04:33:13;;;;;;;4.47;4.22;;;7.40;99.90;;;;;;6120453;29;20308;-67
2022/10/23 04:36:19;;;;;;;5.07;4.53;;;7.40;99.90;;;;;;6119633;29;20272;-67
2022/10/23 04:39:24;;;;;;;5.43;4.57;;;7.10;99.90;;;;;;6119154;29;20295;-66
2022/10/23 04:42:29;;;;;;;5.13;4.82;;;7.00;99.90;;;;;;6119224;29;20276;-67
2022/10/23 04:45:37;;;;;;;6.45;4.90;;;6.80;99.90;;;;;;6119526;29;20267;-67
2022/10/23 04:48:42;;;;;;;5.07;4.78;;;6.80;99.90;;;;;;6118940;29;20308;-67
2022/10/23 04:52:20;;;;;;;5.03;4.72;;;6.90;99.90;;;;;;6108985;29;20279;-67
2022/10/23 04:55:40;;;;;;;5.45;4.38;;;6.90;99.90;;;;;;6118027;29;20272;-67
2022/10/23 04:58:51;;;;;;;4.90;4.55;;;6.80;99.90;;;;;;6118573;29;20304;-67
2022/10/23 05:01:56;;;;;;;4.82;4.63;;;6.80;99.90;;;;;;6119180;29;20280;-67
2022/10/23 05:05:01;;;;;;;4.22;4.03;;;6.70;99.90;;;;;;6118584;29;20616;-68
2022/10/23 05:08:14;;;;;;;4.90;4.60;;;6.80;99.90;;;;;;6134903;29;20307;-67
2022/10/23 05:11:51;;;;;;;4.80;4.45;;;6.90;99.90;;;;;;6100150;29;20275;-67
2022/10/23 05:14:56;;;;;;;5.00;4.70;;;6.80;99.90;;;;;;6119459;29;20304;-67
2022/10/23 05:18:10;;;;;;;4.95;4.55;;;6.90;99.90;;;;;;6119315;29;20303;-67
2022/10/23 05:21:21;;;;;;;4.50;4.30;;;6.90;99.90;;;;;;6102852;29;20272;-68
2022/10/23 05:24:29;;;;;;;5.25;4.80;;;6.90;99.90;;;;;;6119215;29;20305;-68
2022/10/23 05:27:37;;;;;;;6.28;5.10;;;6.90;99.90;;;;;;6102762;29;20280;-67
2022/10/23 05:30:46;;;;;;;5.20;4.70;;;6.90;99.90;;;;;;6102794;29;20272;-67
2022/10/23 05:33:55;;;;;;;4.97;4.65;;;6.40;99.90;;;;;;6102164;29;20307;-67
2022/10/23 05:37:00;;;;;;;5.32;4.93;;;6.40;99.90;;;;;;6119312;29;20291;-68
2022/10/23 05:40:10;;;;;;;5.10;4.80;;;6.30;99.90;;;;;;6102330;29;20313;-68
2022/10/23 05:43:17;;;;;;;4.75;4.45;;;6.20;99.90;;;;;;6101925;29;20299;-68
2022/10/23 05:46:46;;;;;;;5.40;4.68;;;6.30;99.90;;;;;;6102564;29;20271;-67
2022/10/23 05:50:12;;;;;;;5.03;4.63;;;6.40;99.90;;;;;;6098828;29;20308;-67
2022/10/23 05:53:54;;;;;;;4.38;4.18;;;6.60;99.90;;;;;;6099589;29;20615;-67
2022/10/23 05:57:12;;;;;;;5.10;4.80;;;6.70;99.90;;;;;;6118420;29;20276;-67
2022/10/23 06:00:24;;;;;;;4.50;4.25;;;6.60;99.90;;;;;;6101724;29;20607;-67
2022/10/23 06:03:46;;;;;;;4.97;4.50;;;6.80;99.90;;;;;;6101539;29;20312;-67
2022/10/23 06:06:51;;;;;;;4.53;4.25;;;6.70;99.90;;;;;;6118292;29;20300;-67
2022/10/23 06:09:56;;;;;;;5.40;5.00;;;6.60;99.90;;;;;;6101125;29;20299;-68
2022/10/23 06:13:03;;;;;;;4.88;4.60;;;6.40;99.90;;;;;;6101498;29;20604;-66
2022/10/23 06:16:11;;;;;;;4.35;4.15;;;6.50;99.90;;;;;;6101773;29;20520;-67
2022/10/23 06:19:17;;;;;;;4.93;4.47;;;6.40;99.90;;;;;;6101002;29;20313;-67
2022/10/23 06:22:24;;;;;;;5.18;4.75;;;6.50;99.90;;;;;;6117976;29;20271;-67
2022/10/23 06:25:52;;;;;;;4.63;4.30;;;6.40;99.90;;;;;;6116373;29;20560;-68
2022/10/23 06:29:03;;;;;;;5.00;4.70;;;6.30;99.90;;;;;;6101119;29;20510;-68
2022/10/23 06:32:08;;;;;;;4.55;4.35;;;6.00;99.90;;;;;;6101612;29;20548;-68
2022/10/23 06:35:14;;;;;;;4.70;4.40;;;6.00;99.90;;;;;;6100793;29;20304;-68
2022/10/23 06:38:20;;;;;;;4.93;4.63;;;6.20;99.90;;;;;;6100598;29;20305;-68
2022/10/23 06:41:30;;;;;;;4.90;4.60;;;6.30;99.90;;;;;;6101103;29;20276;-68
2022/10/23 06:44:37;;;;;;;5.68;5.28;;;6.30;99.90;;;;;;6116741;29;20300;-68
2022/10/23 06:47:46;;;;;;;5.28;4.88;;;6.00;99.90;;;;;;6100574;29;20299;-68
2022/10/23 06:51:21;;;;;;;4.83;4.53;;;6.00;99.90;;;;;;6097417;29;20280;-68
2022/10/23 06:54:26;;;;;;;5.50;5.15;;;5.90;99.90;;;;;;6100509;29;20300;-68
2022/10/23 06:58:09;;;;;;;5.57;5.07;;;6.00;99.90;;;;;;6103229;29;20308;-67
2022/10/23 07:01:27;;;;;;;6.90;5.03;;;5.90;99.90;;;;;;6100715;29;20279;-67
2022/10/23 07:04:32;;;;;;;5.43;5.03;;;5.90;99.90;;;;;;6116928;29;20386;-67
2022/10/23 07:07:40;;;;;;;5.45;5.07;;;6.00;99.90;;;;;;6100027;29;20303;-67
2022/10/23 07:10:47;;;;;;;4.85;4.50;;;5.80;99.90;;;;;;6110572;29;20465;-67
2022/10/23 07:13:55;;;;;;;5.30;4.87;;;6.00;99.90;;;;;;6140471;29;20302;-67
2022/10/23 07:17:01;;;;;;;5.30;4.90;;;6.20;99.90;;;;;;6140718;29;20279;-68
2022/10/23 07:20:07;;;;;;;5.57;5.07;;;6.40;99.90;;;;;;6123627;29;20307;-68
2022/10/23 07:23:14;;;;;;;5.10;4.77;;;6.40;99.90;;;;;;6123326;29;20299;-67
2022/10/23 07:26:20;;;;;;;5.10;4.75;;;6.50;99.90;;;;;;6124106;29;20287;-67
2022/10/23 07:29:25;;;;;;;5.30;4.90;;;6.60;99.90;;;;;;6140181;29;20303;-65
2022/10/23 07:32:31;;;;;;;5.13;4.82;;;6.70;99.90;;;;;;6123029;29;20271;-68
2022/10/23 07:35:54;;;;;;;5.15;4.85;;;6.80;99.90;;;;;;6140642;29;20272;-66
2022/10/23 07:39:04;;;;;;;5.35;4.88;;;6.80;99.90;;;;;;6123254;29;20307;-65
2022/10/23 07:42:13;;;;;;;6.05;5.50;;;6.70;99.90;;;;;;6123764;29;20271;-66
2022/10/23 07:45:18;;;;;;;5.80;5.28;;;6.60;99.90;;;;;;6099282;29;20316;-66
2022/10/23 07:48:26;;;;;;;5.20;4.80;;;6.60;99.90;;;;;;6091959;29;20296;-66
2022/10/23 07:51:35;;;;;;;5.32;5.00;;;6.70;99.90;;;;;;6093223;29;20268;-66
2022/10/23 07:54:41;;;;;;;5.40;5.00;;;6.60;99.90;;;;;;6077710;29;20331;-66
2022/10/23 07:57:55;;;;;;;4.93;4.57;;;6.60;99.90;;;;;;6096540;29;20296;-66
2022/10/23 08:01:18;;;;;;;6.20;5.50;;;6.60;99.90;;;;;;6096672;29;20482;-67
2022/10/23 08:04:25;;;;;;;5.55;5.25;;;6.70;99.90;;;;;;6096235;29;20304;-67
2022/10/23 08:07:37;;;;;;;5.90;5.40;;;6.60;99.90;;;;;;6096201;29;20300;-66
2022/10/23 08:10:42;;;;;;;5.60;5.18;;;6.60;99.90;;;;;;6113737;29;20455;-67
2022/10/23 08:13:52;;;;;;;5.45;5.15;;;6.70;99.90;;;;;;6127361;29;20482;-67
2022/10/23 08:16:57;;;;;;;5.75;5.20;;;6.70;99.90;;;;;;6128112;29;20271;-67
2022/10/23 08:20:33;;;;;;;4.78;4.47;;;6.70;99.90;;;;;;6143296;29;20591;-67
2022/10/23 08:23:38;;;;;;;5.60;5.07;;;6.70;99.90;;;;;;6143526;29;20302;-67
2022/10/23 08:26:43;;;;;;;5.53;5.13;;;6.60;99.90;;;;;;6127387;29;20271;-66
2022/10/23 08:29:49;;;;;;;4.90;4.60;;;6.40;99.90;;;;;;6127124;29;20298;-66
2022/10/23 08:32:54;;;;;;;5.07;4.78;;;6.50;99.90;;;;;;6127081;29;20347;-66
2022/10/23 08:36:00;;;;;;;5.65;5.15;;;6.40;99.90;;;;;;6127729;29;20275;-66
2022/10/23 08:39:10;;;;;;;4.72;4.53;;;6.40;99.90;;;;;;6127035;29;20362;-67
2022/10/23 08:42:25;;;;;;;5.55;5.15;;;6.40;99.90;;;;;;6127189;29;20275;-67
2022/10/23 08:45:38;;;;;;;5.30;4.80;;;6.50;99.90;;;;;;6143776;29;20270;-67
2022/10/23 08:48:55;;;;;;;5.32;4.85;;;6.60;99.90;;;;;;6126800;29;20328;-67
2022/10/23 08:52:26;;;;;;;5.38;4.95;;;6.70;99.90;;;;;;6127317;29;20271;-67
2022/10/23 08:55:35;;;;;;;4.80;4.57;;;6.70;99.90;;;;;;6142991;29;20583;-67
2022/10/23 08:58:44;;;;;;;5.32;4.82;;;6.60;99.90;;;;;;6143362;29;20307;-67
2022/10/23 09:01:53;;;;;;;4.93;4.53;;;6.80;99.90;;;;;;6143297;29;20291;-65
2022/10/23 09:04:59;;;;;;;5.22;4.78;;;6.80;99.90;;;;;;6142650;29;20610;-67
2022/10/23 09:08:24;;;;;;;5.03;4.75;;;6.70;99.90;;;;;;6141765;29;20584;-69
2022/10/23 09:11:36;;;;;;;5.75;5.35;;;6.70;99.90;;;;;;6112179;29;20272;-67
2022/10/23 09:15:13;;;;;;;6.10;5.57;;;6.70;99.90;;;;;;6118892;29;20299;-67
2022/10/23 09:18:18;;;;;;;5.00;4.70;;;6.80;99.90;;;;;;6118994;29;20299;-69
2022/10/23 09:21:27;;;;;;;5.18;4.88;;;6.80;99.90;;;;;;6119537;29;20595;-66
2022/10/23 09:24:33;;;;;;;5.07;4.68;;;6.60;99.90;;;;;;6118904;29;20299;-67
2022/10/23 09:27:38;;;;;;;4.38;4.18;;;6.70;99.90;;;;;;6118869;29;20276;-69
2022/10/23 09:30:43;;;;;;;4.97;4.68;;;6.90;99.90;;;;;;6119041;29;20272;-68
2022/10/23 09:33:56;;;;;;;6.78;4.80;;;6.90;99.90;;;;;;6118786;29;20296;-68
2022/10/23 09:37:03;;;;;;;4.97;4.35;;;6.90;99.90;;;;;;6119911;29;20281;-66
2022/10/23 09:40:20;;;;;;;4.22;3.90;;;7.00;99.90;;;;;;6118775;29;20619;-68
2022/10/23 09:43:26;;;;;;;5.10;4.60;;;7.00;99.90;;;;;;6118535;29;20296;-68
2022/10/23 09:46:38;;;;;;;5.13;4.65;;;7.00;99.90;;;;;;6102578;29;20280;-69
2022/10/23 09:49:48;;;;;;;4.28;4.07;;;7.10;99.90;;;;;;6118692;29;20347;-71
2022/10/23 09:52:54;;;;;;;4.35;4.05;;;7.20;99.90;;;;;;6118487;29;20591;-69
2022/10/23 09:56:04;;;;;;;4.78;4.03;;;7.20;99.90;;;;;;6118794;29;20276;-67
2022/10/23 09:59:22;;;;;;;4.60;4.03;;;7.30;99.90;;;;;;6118346;29;20631;-67
2022/10/23 10:02:30;;;;;;;6.53;4.20;;;7.30;99.90;;;;;;6118133;29;20291;-68
2022/10/23 10:05:58;;;;;;;4.22;3.83;;;7.40;99.90;;;;;;6118520;29;20280;-67
2022/10/23 10:09:06;;;;;;;3.70;3.40;;;7.30;99.90;;;;;;6117752;29;20300;-68
2022/10/23 10:12:36;;;;;;;3.70;3.58;;;7.40;99.90;;;;;;6140552;29;20267;-68
2022/10/23 10:15:47;;;;;;;3.63;3.42;;;7.40;99.90;;;;;;6141009;29;20290;-68
2022/10/23 10:19:00;;;;;;;3.42;3.30;;;7.40;99.90;;;;;;6140412;29;20330;-72
2022/10/23 10:22:14;;;;;;;3.00;2.90;;;7.50;99.90;;;;;;6141804;29;20295;-69
2022/10/23 10:25:24;;;;;;;3.60;3.40;;;7.50;99.90;;;;;;6141523;29;20347;-67
2022/10/23 10:28:47;;;;;;;3.53;3.40;;;7.60;99.90;;;;;;6141447;29;20303;-66
2022/10/23 10:32:06;;;;;;;3.95;3.72;;;7.60;99.90;;;;;;6141188;29;20275;-68
2022/10/23 10:35:26;;;;;;;4.45;3.40;;;7.70;99.90;;;;;;6141142;29;20299;-67
2022/10/23 10:38:45;;;;;;;5.63;3.25;;;8.00;99.90;;;;;;6140922;29;20295;-67
2022/10/23 10:42:00;;;;;;;3.83;3.50;;;8.10;99.90;;;;;;6140792;29;20308;-67
2022/10/23 10:45:26;;;;;;;3.38;3.22;;;8.10;99.90;;;;;;6140272;29;20314;-66
2022/10/23 10:48:42;;;;;;;3.47;3.13;;;8.10;99.90;;;;;;6140719;29;20295;-66
2022/10/23 10:52:16;;;;;;;3.33;3.20;;;8.10;99.90;;;;;;6102357;29;20286;-66
2022/10/23 10:55:28;;;;;;;3.35;3.15;;;8.10;99.90;;;;;;6140526;29;20304;-66
2022/10/23 10:58:40;;;;;;;3.47;3.22;;;8.20;99.90;;;;;;6140702;29;20310;-67
2022/10/23 11:01:52;;;;;;;3.15;3.05;;;8.20;99.90;;;;;;6140804;29;20295;-67
2022/10/23 11:05:06;;;;;;;2.88;2.67;;;8.20;99.90;;;;;;6140694;29;20291;-67
2022/10/23 11:08:19;;;;;;;2.70;2.60;;;8.20;99.90;;;;;;6140498;29;20588;-67
2022/10/23 11:11:29;;;;;;;3.22;2.80;;;8.30;99.90;;;;;;6124911;29;20272;-67
2022/10/23 11:14:34;;;;;;;2.60;2.50;;;8.30;99.90;;;;;;6116682;29;20463;-68
2022/10/23 11:17:46;;;;;;;2.88;2.80;;;8.40;99.90;;;;;;6116086;29;20268;-68
2022/10/23 11:21:06;;;;;;;2.85;2.65;;;8.40;99.90;;;;;;6117051;29;20291;-68
2022/10/23 11:24:47;;;;;;;6.53;2.88;;;8.40;99.90;;;;;;6116375;29;20296;-67
2022/10/23 11:28:14;;;;;;;2.58;2.53;;;8.50;99.90;;;;;;6116535;29;20287;-67
2022/10/23 11:31:29;;;;;;;2.95;2.65;;;8.50;99.90;;;;;;6100025;29;20275;-67
2022/10/23 11:35:02;;;;;;;3.28;3.00;;;8.50;99.90;;;;;;6116303;29;20299;-68
2022/10/23 11:38:17;;;;;;;2.30;2.30;;;8.60;99.90;;;;;;6116688;29;20307;-67
2022/10/23 11:41:25;;;;;;;2.97;2.88;;;8.70;99.90;;;;;;6100041;29;20291;-68
2022/10/23 11:44:43;;;;;;;2.55;2.33;;;8.70;99.90;;;;;;6099572;29;20474;-68
2022/10/23 11:47:58;;;;;;;4.43;2.42;;;8.70;99.90;;;;;;6099699;29;20297;-68
2022/10/23 11:51:05;;;;;;;2.22;2.20;;;8.80;99.90;;;;;;6116307;29;20430;-68
2022/10/23 11:54:25;;;;;;;2.35;2.28;;;8.80;99.90;;;;;;6099750;29;20300;-68
2022/10/23 11:57:29;;;;;;;2.38;2.28;;;8.80;99.90;;;;;;6116292;29;20470;-67
2022/10/23 12:00:56;;;;;;;1.98;1.88;;;8.80;99.90;;;;;;6116545;29;20382;-66
2022/10/23 12:04:06;;;;;;;2.00;2.00;;;8.90;99.90;;;;;;6116273;29;20296;-68
2022/10/23 12:07:23;;;;;;;2.42;2.13;;;8.90;99.90;;;;;;6116467;29;20300;-66
2022/10/23 12:10:33;;;;;;;2.13;2.03;;;8.90;99.90;;;;;;6123698;29;20275;-67
2022/10/23 12:13:46;;;;;;;2.03;2.03;;;8.90;99.90;;;;;;6122752;29;20302;-68
2022/10/23 12:16:51;;;;;;;1.80;1.80;;;8.90;99.90;;;;;;6139512;29;20275;-68
2022/10/23 12:20:38;;;;;;;1.92;1.92;;;8.90;99.90;;;;;;6139106;29;20350;-68
2022/10/23 12:24:04;;;;;;;2.67;1.80;;;8.90;99.90;;;;;;6117225;29;20299;-68
2022/10/23 12:27:26;;;;;;;2.22;2.00;;;8.90;99.90;;;;;;6140149;29;20274;-69
2022/10/23 12:30:38;;;;;;;1.65;1.65;;;8.90;99.90;;;;;;6139130;29;20563;-68
2022/10/23 12:33:46;;;;;;;1.63;1.60;;;8.90;99.90;;;;;;6139453;29;20303;-68
2022/10/23 12:37:05;;;;;;;1.40;1.40;;;9.00;99.90;;;;;;6123319;29;20580;-68
2022/10/23 12:40:12;;;;;;;1.70;1.70;;;9.10;99.90;;;;;;6139456;29;20607;-69
2022/10/23 12:43:26;;;;;;;1.63;1.63;;;9.10;99.90;;;;;;6143128;29;20303;-68
2022/10/23 12:46:34;;;;;;;2.92;1.77;;;9.00;99.90;;;;;;6144361;29;20279;-68
2022/10/23 12:49:49;;;;;;;3.60;1.48;;;9.00;99.90;;;;;;6126826;29;20299;-67
2022/10/23 12:52:57;;;;;;;1.80;1.55;;;9.10;99.90;;;;;;6126046;29;20307;-68
2022/10/23 12:56:06;;;;;;;1.67;1.40;;;9.20;99.90;;;;;;6143608;29;20271;-68
2022/10/23 12:59:16;;;;;;;1.60;1.50;;;9.20;99.90;;;;;;6143062;29;20594;-68
2022/10/23 13:02:24;;;;;;;1.50;1.50;;;9.20;99.90;;;;;;6143577;29;20590;-67
2022/10/23 13:05:30;;;;;;;1.65;1.55;;;9.20;99.90;;;;;;6142969;29;20279;-67
2022/10/23 13:08:41;;;;;;;1.10;1.10;;;9.10;99.90;;;;;;6142860;29;20295;-67
2022/10/23 13:12:05;;;;;;;1.15;1.15;;;9.20;99.90;;;;;;6106419;29;20272;-67
2022/10/23 13:15:18;;;;;;;1.42;1.42;;;9.20;99.90;;;;;;6102958;29;20308;-67
2022/10/23 13:18:22;;;;;;;1.48;1.42;;;9.30;99.90;;;;;;6118893;29;20484;-68
2022/10/23 13:21:28;;;;;;;1.30;1.30;;;9.20;99.90;;;;;;6119691;29;20291;-67
2022/10/23 13:24:33;;;;;;;3.70;1.40;;;9.20;99.90;;;;;;6118927;29;20639;-67
2022/10/23 13:27:40;;;;;;;5.82;2.65;;;9.20;99.90;;;;;;6119136;29;20452;-68
2022/10/23 13:30:45;;;;;;;2.65;1.50;;;9.20;99.90;;;;;;6119549;29;20268;-68
2022/10/23 13:33:52;;;;;;;2.05;1.60;;;9.10;99.90;;;;;;6119094;29;20308;-68
2022/10/23 13:37:02;;;;;;;2.08;1.90;;;9.10;99.90;;;;;;6118005;29;20275;-68
2022/10/23 13:40:22;;;;;;;1.77;1.67;;;9.10;99.90;;;;;;6118744;29;20312;-68
2022/10/23 13:43:29;;;;;;;2.70;2.17;;;9.10;99.90;;;;;;6118523;29;20299;-68
2022/10/23 13:46:34;;;;;;;2.03;1.92;;;9.10;99.90;;;;;;6119117;29;20456;-68
2022/10/23 13:49:38;;;;;;;7.00;2.38;;;9.20;99.90;;;;;;6118649;29;20607;-67
2022/10/23 13:52:43;;;;;;;1.92;1.92;;;9.20;99.90;;;;;;6118502;29;20276;-68
2022/10/23 13:55:52;;;;;;;1.95;1.95;;;9.20;99.90;;;;;;6119403;29;20276;-68
2022/10/23 13:59:03;;;;;;;2.03;2.03;;;9.20;99.90;;;;;;6118207;29;20315;-67
2022/10/23 14:02:19;;;;;;;2.88;2.05;;;9.20;99.90;;;;;;6118992;29;20480;-67
2022/10/23 14:05:24;;;;;;;2.28;2.17;;;9.20;99.90;;;;;;6118447;29;20296;-67
2022/10/23 14:08:29;;;;;;;2.25;2.15;;;9.30;99.90;;;;;;6118058;29;20611;-67
2022/10/23 14:11:34;;;;;;;2.05;1.95;;;9.30;99.90;;;;;;6135066;29;20276;-68
2022/10/23 14:14:40;;;;;;;1.83;1.83;;;9.30;99.90;;;;;;6141847;29;20614;-67
2022/10/23 14:17:45;;;;;;;2.67;1.95;;;9.30;99.90;;;;;;6141464;29;20275;-66
2022/10/23 14:20:50;;;;;;;1.75;1.67;;;9.30;99.90;;;;;;6141761;29;20282;-68
2022/10/23 14:23:54;;;;;;;3.70;1.65;;;9.40;99.90;;;;;;6141491;29;20299;-68
2022/10/23 14:26:59;;;;;;;1.83;1.70;;;9.40;99.90;;;;;;6142025;29;20271;-68
2022/10/23 14:30:08;;;;;;;2.00;1.90;;;9.40;99.90;;;;;;6141295;29;20303;-68
2022/10/23 14:33:16;;;;;;;2.17;1.70;;;9.30;99.90;;;;;;6141454;29;20303;-68
2022/10/23 14:36:21;;;;;;;2.63;1.83;;;9.40;99.90;;;;;;6141889;29;20270;-68
2022/10/23 14:39:26;;;;;;;2.55;2.08;;;9.30;99.90;;;;;;6140960;29;20606;-68
2022/10/23 14:42:33;;;;;;;3.88;1.92;;;9.30;99.90;;;;;;6141019;29;20271;-68
2022/10/23 14:45:39;;;;;;;2.35;1.88;;;9.40;99.90;;;;;;6141113;29;20275;-68
2022/10/23 14:48:44;;;;;;;1.63;1.63;;;9.30;99.90;;;;;;6141062;29;20299;-68
2022/10/23 14:51:52;;;;;;;1.70;1.70;;;9.30;99.90;;;;;;6141302;29;20271;-68
2022/10/23 14:54:59;;;;;;;1.90;1.88;;;9.30;99.90;;;;;;6140853;29;20311;-68
2022/10/23 14:58:04;;;;;;;1.98;1.90;;;9.30;99.90;;;;;;6140974;29;20304;-68
2022/10/23 15:01:12;;;;;;;2.47;1.98;;;9.30;99.90;;;;;;6141248;29;20271;-68
2022/10/23 15:04:17;;;;;;;1.75;1.70;;;9.30;99.90;;;;;;6140106;29;20315;-68
2022/10/23 15:07:22;;;;;;;1.80;1.70;;;9.20;99.90;;;;;;6141073;29;20309;-68
2022/10/23 15:10:27;;;;;;;1.80;1.80;;;9.20;99.90;;;;;;6132837;29;20591;-68
2022/10/23 15:13:31;;;;;;;1.48;1.48;;;9.20;99.90;;;;;;6116399;29;20300;-68
2022/10/23 15:16:40;;;;;;;1.83;1.73;;;9.30;99.90;;;;;;6116652;29;20567;-67
2022/10/23 15:19:45;;;;;;;2.50;1.58;;;9.30;99.90;;;;;;6116707;29;20482;-68
2022/10/23 15:22:50;;;;;;;1.90;1.58;;;9.30;99.90;;;;;;6116594;29;20300;-68
2022/10/23 15:25:57;;;;;;;3.60;1.77;;;9.30;99.90;;;;;;6116741;29;20291;-68
2022/10/23 15:29:02;;;;;;;1.58;1.58;;;9.30;99.90;;;;;;6116408;29;20487;-68
2022/10/23 15:32:10;;;;;;;1.20;1.20;;;9.30;99.90;;;;;;6117232;29;20571;-68
2022/10/23 15:35:15;;;;;;;1.75;1.65;;;9.30;99.90;;;;;;6116058;29;20303;-69
2022/10/23 15:38:21;;;;;;;1.65;1.65;;;9.20;99.90;;;;;;6116212;29;20300;-68
2022/10/23 15:41:29;;;;;;;1.58;1.45;;;9.30;99.90;;;;;;6116381;29;20555;-68
2022/10/23 15:44:34;;;;;;;1.80;1.70;;;9.30;99.90;;;;;;6116113;29;20612;-67
2022/10/23 15:47:41;;;;;;;2.17;1.80;;;9.30;99.90;;;;;;6116029;29;20276;-67
2022/10/23 15:50:46;;;;;;;1.80;1.70;;;9.30;99.90;;;;;;6116790;29;20559;-67
2022/10/23 15:53:50;;;;;;;1.67;1.67;;;9.30;99.90;;;;;;6116489;29;20304;-67
2022/10/23 15:56:55;;;;;;;1.85;1.73;;;9.20;99.90;;;;;;6116958;29;20276;-68
2022/10/23 16:00:00;;;;;;;3.30;2.10;;;9.20;99.90;;;;;;6116479;29;20299;-68
2022/10/23 16:03:07;;;;;;;1.77;1.77;;;9.20;99.90;;;;;;6116171;29;20300;-68
2022/10/23 16:06:14;;;;;;;2.10;1.95;;;9.10;99.90;;;;;;6116668;29;20299;-68
2022/10/23 16:09:20;;;;;;;1.90;1.90;;;9.20;99.90;;;;;;6115676;29;20300;-69
2022/10/23 16:12:25;;;;;;;2.47;2.35;;;9.20;99.90;;;;;;6139929;29;20275;-68
2022/10/23 16:15:30;;;;;;;3.60;2.05;;;9.20;99.90;;;;;;6138899;29;20318;-67
2022/10/23 16:18:36;;;;;;;2.63;2.40;;;9.20;99.90;;;;;;6144033;29;20314;-67
2022/10/23 16:21:42;;;;;;;3.15;2.22;;;9.20;99.90;;;;;;6144314;29;20283;-66
2022/10/23 16:24:46;;;;;;;2.33;2.22;;;9.20;99.90;;;;;;6144452;29;20595;-66
2022/10/23 16:27:51;;;;;;;2.70;2.50;;;9.20;99.90;;;;;;6144211;29;20303;-66
2022/10/23 16:30:56;;;;;;;3.00;2.40;;;9.10;99.90;;;;;;6144421;29;20312;-66
2022/10/23 16:34:04;;;;;;;3.22;2.25;;;9.10;99.90;;;;;;6144141;29;20294;-67
2022/10/23 16:37:11;;;;;;;2.88;2.78;;;9.10;99.90;;;;;;6144670;29;20280;-67
2022/10/23 16:40:41;;;;;;;3.20;2.90;;;9.10;99.90;;;;;;6139142;29;20267;-66
2022/10/23 16:44:05;;;;;;;2.92;2.70;;;9.10;99.90;;;;;;6143606;29;20299;-68
2022/10/23 16:47:22;;;;;;;4.72;2.45;;;9.10;99.90;;;;;;6127578;29;20308;-67